Time;durP1;ratioP1;P1;durP2;ratioP2;P2;SDS_P1;SDS_P2;PMS_P1;PMS_P2;Temp;Humidity;BMP_temperature;BMP_pressure;BME280_temperature;BME280_humidity;BME280_pressure;Samples;Min_cycle;Max_cycle;Signal;HPM_P1;HPM_P2
2022/12/01 00:01:20;;;;;;;126.72;37.63;;;5.70;99.90;;;;;;5059693;28;20059;-72
2022/12/01 00:03:46;;;;;;;110.97;35.17;;;5.70;99.90;;;;;;5062484;28;20551;-72
2022/12/01 00:06:15;;;;;;;109.05;35.78;;;5.70;99.90;;;;;;5062375;28;20075;-72
2022/12/01 00:10:24;;;;;;;122.00;36.28;;;5.70;99.90;;;;;;5063660;28;20049;-72
2022/12/01 00:11:26;;;;;;;105.72;35.03;;;5.60;99.90;;;;;;5063930;28;20089;-73
2022/12/01 00:13:52;;;;;;;117.82;37.53;;;5.70;99.90;;;;;;5063750;28;20025;-72
2022/12/01 00:16:18;;;;;;;125.53;36.80;;;5.70;99.90;;;;;;5063604;28;20051;-72
2022/12/01 00:18:47;;;;;;;138.20;36.92;;;5.70;99.90;;;;;;5045660;28;20040;-73
2022/12/01 00:21:18;;;;;;;128.75;38.50;;;5.70;99.90;;;;;;5063683;28;20384;-73
2022/12/01 00:23:46;;;;;;;115.15;37.30;;;5.70;99.90;;;;;;5045657;28;20040;-72
2022/12/01 00:26:12;;;;;;;126.80;39.22;;;5.70;99.90;;;;;;5063424;28;20036;-73
2022/12/01 00:28:38;;;;;;;122.22;37.60;;;5.80;99.90;;;;;;5063415;28;20032;-72
2022/12/01 00:31:11;;;;;;;109.15;37.55;;;5.70;99.90;;;;;;5063429;28;20120;-73
2022/12/01 00:33:37;;;;;;;131.43;38.22;;;5.60;99.90;;;;;;5063300;28;20051;-73
2022/12/01 00:36:03;;;;;;;129.40;39.03;;;5.70;99.90;;;;;;5063473;28;20035;-73
2022/12/01 00:38:29;;;;;;;128.57;38.65;;;5.70;99.90;;;;;;5063238;28;20033;-74
2022/12/01 00:40:54;;;;;;;130.25;40.33;;;5.70;99.90;;;;;;5063306;28;20082;-72
2022/12/01 00:43:20;;;;;;;131.85;42.17;;;5.70;99.90;;;;;;5063447;28;20033;-73
2022/12/01 00:45:46;;;;;;;120.07;39.95;;;5.70;99.90;;;;;;5063244;28;20032;-72
2022/12/01 00:48:11;;;;;;;129.98;41.13;;;5.70;99.90;;;;;;5063092;28;20036;-72
2022/12/01 00:50:37;;;;;;;135.18;40.95;;;5.70;99.90;;;;;;5063254;28;20024;-73
2022/12/01 00:53:03;;;;;;;128.80;40.38;;;5.70;99.90;;;;;;5063189;28;20078;-72
2022/12/01 00:55:28;;;;;;;127.10;39.33;;;5.70;99.90;;;;;;5063184;28;20025;-73
2022/12/01 00:57:54;;;;;;;132.98;39.78;;;5.70;99.90;;;;;;5063576;28;20029;-72
2022/12/01 01:00:19;;;;;;;127.20;38.58;;;5.70;99.90;;;;;;5063284;28;20033;-72
2022/12/01 01:02:45;;;;;;;126.95;39.05;;;5.60;99.90;;;;;;5066911;28;20445;-73
2022/12/01 01:05:11;;;;;;;120.25;40.22;;;5.60;99.90;;;;;;5067461;28;20373;-72
2022/12/01 01:07:36;;;;;;;118.25;37.78;;;5.60;99.90;;;;;;5067271;28;20052;-73
2022/12/01 01:10:02;;;;;;;115.28;37.88;;;5.60;99.90;;;;;;5066928;28;20036;-73
2022/12/01 01:12:27;;;;;;;115.57;38.78;;;5.60;99.90;;;;;;5067158;28;20039;-73
2022/12/01 01:14:53;;;;;;;114.82;39.53;;;5.70;99.90;;;;;;5066954;28;20032;-73
2022/12/01 01:17:18;;;;;;;118.43;40.65;;;5.70;99.90;;;;;;5066988;28;20055;-72
2022/12/01 01:19:45;;;;;;;130.02;39.55;;;5.70;99.90;;;;;;5066970;28;20385;-72
2022/12/01 01:22:11;;;;;;;115.63;40.28;;;5.70;99.90;;;;;;5066487;28;20033;-73
2022/12/01 01:24:37;;;;;;;113.68;37.35;;;5.70;99.90;;;;;;5066773;28;20033;-72
2022/12/01 01:27:04;;;;;;;117.03;39.28;;;5.70;99.90;;;;;;5066803;28;20124;-73
2022/12/01 01:29:31;;;;;;;110.78;38.92;;;5.70;99.90;;;;;;5066176;28;20055;-73
2022/12/01 01:31:56;;;;;;;124.22;40.05;;;5.70;99.90;;;;;;5067094;28;20029;-72
2022/12/01 01:34:22;;;;;;;118.72;39.38;;;5.60;99.90;;;;;;5048940;28;20178;-72
2022/12/01 01:36:47;;;;;;;131.80;40.53;;;5.70;99.90;;;;;;5066297;28;20037;-71
2022/12/01 01:39:13;;;;;;;109.57;38.47;;;5.70;99.90;;;;;;5048762;28;20040;-72
2022/12/01 01:41:39;;;;;;;129.18;40.55;;;5.70;99.90;;;;;;5066720;28;20052;-72
2022/12/01 01:44:44;;;;;;;121.60;38.30;;;5.60;99.90;;;;;;5066601;28;20036;-73
2022/12/01 01:47:10;;;;;;;118.53;39.28;;;5.60;99.90;;;;;;5065009;28;20033;-72
2022/12/01 01:49:37;;;;;;;127.25;41.55;;;5.60;99.90;;;;;;5064568;28;20113;-72
2022/12/01 01:52:04;;;;;;;115.32;39.10;;;5.70;99.90;;;;;;5065146;28;20584;-72
2022/12/01 01:54:43;;;;;;;112.25;39.15;;;5.70;99.90;;;;;;5065057;28;20029;-73
2022/12/01 01:57:12;;;;;;;121.95;39.83;;;5.70;99.90;;;;;;5064346;28;20025;-72
2022/12/01 01:59:52;;;;;;;124.85;39.83;;;5.70;99.90;;;;;;5064585;28;20048;-73
2022/12/01 02:02:20;;;;;;;114.20;38.88;;;5.70;99.90;;;;;;5064797;28;20028;-73
2022/12/01 02:04:49;;;;;;;122.10;42.22;;;5.60;99.90;;;;;;5065118;28;20081;-73
2022/12/01 02:07:17;;;;;;;129.07;42.78;;;5.70;99.90;;;;;;5064542;28;20075;-72
2022/12/01 02:09:43;;;;;;;126.70;41.78;;;5.60;99.90;;;;;;5064739;28;20048;-72
2022/12/01 02:12:31;;;;;;;139.00;43.83;;;5.60;99.90;;;;;;5063158;28;20094;-71
2022/12/01 02:15:25;;;;;;;132.15;44.25;;;5.60;99.90;;;;;;5064540;28;20071;-74
2022/12/01 02:18:03;;;;;;;131.07;43.00;;;5.60;99.90;;;;;;5064655;28;20048;-72
2022/12/01 02:20:56;;;;;;;133.88;41.85;;;5.60;99.90;;;;;;5065097;28;20029;-73
2022/12/01 02:23:44;;;;;;;132.75;42.35;;;5.60;99.90;;;;;;5065097;28;20036;-72
2022/12/01 02:26:47;;;;;;;147.63;44.17;;;5.60;99.90;;;;;;5063977;28;20056;-71
2022/12/01 02:29:31;;;;;;;117.60;41.38;;;5.60;99.90;;;;;;5046454;28;20047;-70
2022/12/01 02:32:18;;;;;;;127.95;43.92;;;5.60;99.90;;;;;;5024579;28;20041;-71
2022/12/01 02:34:46;;;;;;;144.43;44.80;;;5.60;99.90;;;;;;5024194;28;20045;-71
2022/12/01 02:37:34;;;;;;;152.90;45.88;;;5.70;99.90;;;;;;5024635;28;20030;-71
2022/12/01 02:40:38;;;;;;;143.60;45.95;;;5.60;99.90;;;;;;5024497;28;20045;-71
2022/12/01 02:43:12;;;;;;;130.43;44.35;;;5.60;99.90;;;;;;5024133;28;20045;-71
2022/12/01 02:45:57;;;;;;;150.18;46.78;;;5.60;99.90;;;;;;5023916;28;20034;-71
2022/12/01 02:48:32;;;;;;;145.77;44.97;;;5.60;99.90;;;;;;5024511;28;20488;-71
2022/12/01 02:51:03;;;;;;;143.10;44.22;;;5.70;99.90;;;;;;5024531;28;20037;-71
2022/12/01 02:53:29;;;;;;;132.57;45.83;;;5.60;99.90;;;;;;5022405;28;20030;-72
2022/12/01 02:55:57;;;;;;;143.40;45.92;;;5.60;99.90;;;;;;5024257;28;20036;-72
2022/12/01 02:58:23;;;;;;;144.65;47.80;;;5.60;99.90;;;;;;5022396;28;20129;-71
2022/12/01 03:01:19;;;;;;;151.40;47.45;;;5.60;99.90;;;;;;5023541;28;20030;-72
2022/12/01 03:03:48;;;;;;;157.82;46.92;;;5.60;99.90;;;;;;5023931;28;20084;-70
2022/12/01 03:06:51;;;;;;;152.70;47.90;;;5.50;99.90;;;;;;5023585;28;20052;-70
2022/12/01 03:09:43;;;;;;;149.45;47.35;;;5.50;99.90;;;;;;5024277;28;20446;-71
2022/12/01 03:12:12;;;;;;;144.02;47.40;;;5.50;99.90;;;;;;5022718;28;20045;-71
2022/12/01 03:14:44;;;;;;;151.15;47.50;;;5.60;99.90;;;;;;5023353;28;20036;-73
2022/12/01 03:17:15;;;;;;;153.02;47.38;;;5.60;99.90;;;;;;5023758;28;20053;-70
2022/12/01 03:19:47;;;;;;;138.27;45.17;;;5.50;99.90;;;;;;5023432;28;20026;-72
2022/12/01 03:22:31;;;;;;;142.05;45.90;;;5.60;99.90;;;;;;5023448;28;20036;-71
2022/12/01 03:25:00;;;;;;;147.23;47.65;;;5.50;99.90;;;;;;5023285;28;20037;-71
2022/12/01 03:27:33;;;;;;;166.98;52.15;;;5.60;99.90;;;;;;5023749;28;20045;-71
2022/12/01 03:30:00;;;;;;;154.35;47.67;;;5.60;99.90;;;;;;5033488;28;20049;-71
2022/12/01 03:32:34;;;;;;;153.40;50.75;;;5.60;99.90;;;;;;5063396;28;20021;-71
2022/12/01 03:35:09;;;;;;;145.65;48.88;;;5.60;99.90;;;;;;5063129;28;20033;-71
2022/12/01 03:38:03;;;;;;;143.35;48.42;;;5.60;99.90;;;;;;5062994;28;20083;-71
2022/12/01 03:40:31;;;;;;;131.30;46.67;;;5.60;99.90;;;;;;5062615;28;20036;-72
2022/12/01 03:43:02;;;;;;;146.57;48.53;;;5.60;99.90;;;;;;5062791;28;20021;-72
2022/12/01 03:45:32;;;;;;;134.80;46.72;;;5.60;99.90;;;;;;5063205;28;20058;-70
2022/12/01 03:47:58;;;;;;;140.60;47.63;;;5.60;99.90;;;;;;5062644;28;20040;-70
2022/12/01 03:50:30;;;;;;;138.85;46.47;;;5.60;99.90;;;;;;5062957;28;20055;-71
2022/12/01 03:53:12;;;;;;;138.95;48.65;;;5.60;99.90;;;;;;5063105;28;20021;-72
2022/12/01 03:55:42;;;;;;;134.98;47.65;;;5.60;99.90;;;;;;5062845;28;20100;-72
2022/12/01 03:58:27;;;;;;;133.27;45.88;;;5.60;99.90;;;;;;5062230;28;20064;-71
2022/12/01 04:00:56;;;;;;;120.20;46.28;;;5.60;99.90;;;;;;5062642;28;20119;-71
2022/12/01 04:03:24;;;;;;;142.57;46.63;;;5.60;99.90;;;;;;5069837;28;20025;-72
2022/12/01 04:05:50;;;;;;;143.43;47.58;;;5.60;99.90;;;;;;5065541;28;20029;-72
2022/12/01 04:08:16;;;;;;;138.30;46.60;;;5.60;99.90;;;;;;5083600;28;20037;-71
2022/12/01 04:10:42;;;;;;;139.70;49.25;;;5.60;99.90;;;;;;5083212;28;20020;-72
2022/12/01 04:13:15;;;;;;;125.47;48.72;;;5.60;99.90;;;;;;5083366;28;20134;-72
2022/12/01 04:15:42;;;;;;;133.50;47.33;;;5.60;99.90;;;;;;5083482;28;20028;-72
2022/12/01 04:18:07;;;;;;;139.68;49.83;;;5.60;99.90;;;;;;5083529;28;20059;-71
2022/12/01 04:20:33;;;;;;;136.68;47.50;;;5.60;99.90;;;;;;5083623;28;20036;-72
2022/12/01 04:22:59;;;;;;;139.38;47.53;;;5.60;99.90;;;;;;5083464;28;20036;-73
2022/12/01 04:25:25;;;;;;;145.95;49.78;;;5.60;99.90;;;;;;5083739;28;20403;-71
2022/12/01 04:27:53;;;;;;;136.73;49.15;;;5.60;99.90;;;;;;5083887;28;20037;-71
2022/12/01 04:30:19;;;;;;;128.27;47.53;;;5.60;99.90;;;;;;5083446;28;20045;-72
2022/12/01 04:32:49;;;;;;;135.35;49.08;;;5.70;99.90;;;;;;5084195;28;20035;-71
2022/12/01 04:35:14;;;;;;;140.93;49.30;;;5.60;99.90;;;;;;5083052;28;20046;-71
2022/12/01 04:37:40;;;;;;;133.93;49.53;;;5.60;99.90;;;;;;5082637;28;20020;-71
2022/12/01 04:40:07;;;;;;;136.15;48.90;;;5.50;99.90;;;;;;5083353;28;20029;-72
2022/12/01 04:42:32;;;;;;;129.18;48.10;;;5.50;99.90;;;;;;5083484;28;20112;-72
2022/12/01 04:44:58;;;;;;;135.40;48.08;;;5.50;99.90;;;;;;5082973;28;20025;-73
2022/12/01 04:47:24;;;;;;;144.45;49.10;;;5.50;99.90;;;;;;5083607;28;20032;-72
2022/12/01 04:49:49;;;;;;;132.32;50.05;;;5.60;99.90;;;;;;5083238;28;20033;-72
2022/12/01 04:52:15;;;;;;;145.98;50.78;;;5.50;99.90;;;;;;5082852;28;20035;-72
2022/12/01 04:54:40;;;;;;;144.60;49.97;;;5.60;99.90;;;;;;5083089;28;20029;-72
2022/12/01 04:57:06;;;;;;;134.55;49.80;;;5.50;99.90;;;;;;5083262;28;20020;-73
2022/12/01 04:59:32;;;;;;;135.75;50.78;;;5.50;99.90;;;;;;5082930;28;20053;-73
2022/12/01 05:01:58;;;;;;;150.75;52.63;;;5.50;99.90;;;;;;5083211;28;20103;-73
2022/12/01 05:04:23;;;;;;;116.70;49.40;;;5.60;99.90;;;;;;5083383;28;20036;-72
2022/12/01 05:06:49;;;;;;;150.82;53.95;;;5.50;99.90;;;;;;5082626;28;20092;-72
2022/12/01 05:09:15;;;;;;;136.43;51.10;;;5.50;99.90;;;;;;5083517;28;20021;-72
2022/12/01 05:11:41;;;;;;;136.65;51.20;;;5.50;99.90;;;;;;5082641;28;20111;-72
2022/12/01 05:14:07;;;;;;;128.40;49.67;;;5.50;99.90;;;;;;5082997;28;20039;-72
2022/12/01 05:16:33;;;;;;;147.60;53.42;;;5.50;99.90;;;;;;5083343;28;20028;-73
2022/12/01 05:21:51;;;;;;;136.07;51.17;;;5.50;99.90;;;;;;5083453;28;20114;-72
2022/12/01 05:24:18;;;;;;;130.02;51.88;;;5.50;99.90;;;;;;5083261;28;20021;-72
2022/12/01 05:26:44;;;;;;;133.18;51.15;;;5.50;99.90;;;;;;5082733;28;20032;-72
2022/12/01 05:29:10;;;;;;;145.23;53.40;;;5.50;99.90;;;;;;5064803;28;20107;-72
2022/12/01 05:31:38;;;;;;;130.02;51.22;;;5.50;99.90;;;;;;5082861;28;20051;-73
2022/12/01 05:34:04;;;;;;;138.75;50.83;;;5.50;99.90;;;;;;5082896;28;20024;-73
2022/12/01 05:36:29;;;;;;;136.75;50.55;;;5.50;99.90;;;;;;5083226;28;20024;-73
2022/12/01 05:38:55;;;;;;;146.05;53.95;;;5.50;99.90;;;;;;5083292;28;20431;-72
2022/12/01 05:41:21;;;;;;;143.43;51.35;;;5.50;99.90;;;;;;5082954;28;20028;-72
2022/12/01 05:43:47;;;;;;;142.50;52.33;;;5.50;99.90;;;;;;5064820;28;20039;-72
2022/12/01 05:46:13;;;;;;;134.93;51.78;;;5.40;99.90;;;;;;5064577;28;20028;-71
2022/12/01 05:48:38;;;;;;;126.45;50.45;;;5.30;99.90;;;;;;5086516;28;20480;-73
2022/12/01 05:51:09;;;;;;;140.68;53.72;;;5.50;99.90;;;;;;5079724;28;20030;-73
2022/12/01 05:53:35;;;;;;;134.68;49.17;;;5.40;99.90;;;;;;5064935;28;20044;-73
2022/12/01 05:56:01;;;;;;;139.80;51.60;;;5.40;99.90;;;;;;5064840;28;20025;-73
2022/12/01 05:58:27;;;;;;;144.15;51.47;;;5.40;99.90;;;;;;5064516;28;20039;-73
2022/12/01 06:00:53;;;;;;;132.55;49.70;;;5.40;99.90;;;;;;5065121;28;20033;-72
2022/12/01 06:03:19;;;;;;;133.02;52.13;;;5.40;99.90;;;;;;5065842;28;20040;-72
2022/12/01 06:05:48;;;;;;;134.65;52.55;;;5.40;99.90;;;;;;5066493;28;20033;-72
2022/12/01 06:08:14;;;;;;;126.07;51.75;;;5.40;99.90;;;;;;5057640;28;20550;-71
2022/12/01 06:10:39;;;;;;;141.15;53.22;;;5.40;99.90;;;;;;5065357;28;20051;-71
2022/12/01 06:13:05;;;;;;;141.98;53.63;;;5.40;99.90;;;;;;5065904;28;20431;-72
2022/12/01 06:15:31;;;;;;;135.48;51.55;;;5.40;99.90;;;;;;5065562;28;20032;-73
2022/12/01 06:17:59;;;;;;;135.07;53.95;;;5.40;99.90;;;;;;5066190;28;20033;-71
2022/12/01 06:20:25;;;;;;;136.45;53.40;;;5.40;99.90;;;;;;5065854;28;20476;-71
2022/12/01 06:22:51;;;;;;;135.70;51.63;;;5.40;99.90;;;;;;5064966;28;20059;-71
2022/12/01 06:25:16;;;;;;;131.40;53.15;;;5.50;99.90;;;;;;5064948;28;20040;-71
2022/12/01 06:27:42;;;;;;;138.07;52.58;;;5.40;99.90;;;;;;5064523;28;20136;-71
2022/12/01 06:30:09;;;;;;;129.93;52.85;;;5.30;99.90;;;;;;5065078;28;20363;-71
2022/12/01 06:32:35;;;;;;;142.77;53.25;;;5.40;99.90;;;;;;5046993;28;20122;-72
2022/12/01 06:35:01;;;;;;;129.98;52.67;;;5.40;99.90;;;;;;5058381;28;20037;-74
2022/12/01 06:37:27;;;;;;;145.27;51.50;;;5.40;99.90;;;;;;5065409;28;20037;-72
2022/12/01 06:39:52;;;;;;;147.40;55.00;;;5.40;99.90;;;;;;5065696;28;20037;-72
2022/12/01 06:42:18;;;;;;;139.65;54.30;;;5.30;99.90;;;;;;5063034;28;20038;-72
2022/12/01 06:44:45;;;;;;;140.85;52.47;;;5.30;99.90;;;;;;5059015;28;20040;-70
2022/12/01 06:47:11;;;;;;;143.45;52.55;;;5.30;99.90;;;;;;5056983;28;20032;-72
2022/12/01 06:49:37;;;;;;;133.10;51.72;;;5.30;99.90;;;;;;5054308;28;20049;-71
2022/12/01 06:52:04;;;;;;;136.93;54.03;;;5.30;99.90;;;;;;5060374;28;20063;-72
2022/12/01 06:54:30;;;;;;;133.93;51.65;;;5.40;99.90;;;;;;5060478;28;20037;-72
2022/12/01 06:56:55;;;;;;;139.80;52.70;;;5.40;99.90;;;;;;5062866;28;20034;-72
2022/12/01 06:59:21;;;;;;;142.48;52.75;;;5.30;99.90;;;;;;5063547;28;20049;-71
2022/12/01 07:01:47;;;;;;;142.00;55.40;;;5.30;99.90;;;;;;5064750;28;20441;-72
2022/12/01 07:04:12;;;;;;;146.90;54.40;;;5.30;99.90;;;;;;5064636;28;20040;-71
2022/12/01 07:06:38;;;;;;;137.38;53.63;;;5.30;99.90;;;;;;5064814;28;20040;-71
2022/12/01 07:09:04;;;;;;;134.70;51.83;;;5.30;99.90;;;;;;5064941;28;20021;-71
2022/12/01 07:11:31;;;;;;;140.60;52.00;;;5.30;99.90;;;;;;5065068;28;20021;-72
2022/12/01 07:13:56;;;;;;;135.05;53.13;;;5.30;99.90;;;;;;5064122;28;20029;-72
2022/12/01 07:16:22;;;;;;;128.80;52.90;;;5.30;99.90;;;;;;5064623;28;20032;-71
2022/12/01 07:18:48;;;;;;;145.15;52.63;;;5.30;99.90;;;;;;5065021;28;20081;-72
2022/12/01 07:21:14;;;;;;;138.70;54.20;;;5.30;99.90;;;;;;5064928;28;20493;-71
2022/12/01 07:23:40;;;;;;;144.52;55.83;;;5.20;99.90;;;;;;5064629;28;20017;-72
2022/12/01 07:26:09;;;;;;;140.98;53.22;;;5.30;99.90;;;;;;5064968;28;20067;-72
2022/12/01 07:28:35;;;;;;;140.18;54.30;;;5.20;99.90;;;;;;5064619;28;20112;-71
2022/12/01 07:31:07;;;;;;;138.75;53.88;;;5.20;99.90;;;;;;5064048;28;20098;-71
2022/12/01 07:33:33;;;;;;;128.63;51.65;;;5.20;99.90;;;;;;5064986;28;20021;-71
2022/12/01 07:35:59;;;;;;;133.75;50.92;;;5.20;99.90;;;;;;5064850;28;20025;-71
2022/12/01 07:38:28;;;;;;;146.77;55.30;;;5.20;99.90;;;;;;5063325;28;20529;-72
2022/12/01 07:40:54;;;;;;;133.63;51.50;;;5.20;99.90;;;;;;5064457;28;20088;-72
2022/12/01 07:43:19;;;;;;;128.70;52.47;;;5.20;99.90;;;;;;5062976;28;20036;-72
2022/12/01 07:45:45;;;;;;;133.52;52.17;;;5.10;99.90;;;;;;5063981;28;20084;-71
2022/12/01 07:48:11;;;;;;;138.13;53.28;;;5.20;99.90;;;;;;5064327;28;20037;-73
2022/12/01 07:50:36;;;;;;;132.57;51.60;;;5.20;99.90;;;;;;5064495;28;20033;-72
2022/12/01 07:53:02;;;;;;;136.43;52.75;;;5.20;99.90;;;;;;5064218;28;20021;-72
2022/12/01 07:55:28;;;;;;;137.48;52.13;;;5.20;99.90;;;;;;5064035;28;20028;-71
2022/12/01 07:57:54;;;;;;;134.82;52.03;;;5.20;99.90;;;;;;5060422;28;20092;-71
2022/12/01 08:00:20;;;;;;;130.13;51.38;;;5.20;99.90;;;;;;5057732;28;20060;-72
2022/12/01 08:02:48;;;;;;;126.72;51.15;;;5.20;99.90;;;;;;5061619;28;20029;-72
2022/12/01 08:05:13;;;;;;;133.85;50.08;;;5.20;99.90;;;;;;5061613;28;20440;-72
2022/12/01 08:07:39;;;;;;;131.45;50.47;;;5.20;99.90;;;;;;5049171;28;20041;-72
2022/12/01 08:10:05;;;;;;;138.43;50.97;;;5.20;99.90;;;;;;5062883;28;20033;-72
2022/12/01 08:12:31;;;;;;;123.00;49.58;;;5.10;99.90;;;;;;5058069;28;20074;-73
2022/12/01 08:14:56;;;;;;;130.23;49.53;;;5.20;99.90;;;;;;5061190;28;20040;-73
2022/12/01 08:17:22;;;;;;;123.43;51.47;;;5.10;99.90;;;;;;5055713;28;20029;-71
2022/12/01 08:19:47;;;;;;;121.68;50.67;;;5.10;99.90;;;;;;5062644;28;20110;-71
2022/12/01 08:22:13;;;;;;;123.93;51.15;;;5.10;99.90;;;;;;5062413;28;20040;-70
2022/12/01 08:24:39;;;;;;;124.63;49.40;;;5.20;99.90;;;;;;5063624;28;20062;-71
2022/12/01 08:27:04;;;;;;;126.97;50.13;;;5.10;99.90;;;;;;5060248;28;20044;-70
2022/12/01 08:29:30;;;;;;;127.60;50.08;;;5.20;99.90;;;;;;5061463;28;20037;-72
2022/12/01 08:31:58;;;;;;;125.80;51.08;;;5.10;99.90;;;;;;5062351;28;20024;-71
2022/12/01 08:34:24;;;;;;;123.38;50.10;;;5.10;99.90;;;;;;5060326;28;20040;-71
2022/12/01 08:36:49;;;;;;;137.25;52.72;;;5.10;99.90;;;;;;5062444;28;20033;-72
2022/12/01 08:39:15;;;;;;;127.35;51.08;;;5.20;99.90;;;;;;5055446;28;21820;-70
2022/12/01 08:41:41;;;;;;;140.50;51.97;;;5.20;99.90;;;;;;5061681;28;20128;-71
2022/12/01 08:44:08;;;;;;;130.10;51.85;;;5.20;99.90;;;;;;5058846;28;20033;-70
2022/12/01 08:46:34;;;;;;;137.07;52.00;;;5.20;99.90;;;;;;5059134;28;20029;-71
2022/12/01 08:49:01;;;;;;;137.10;52.90;;;5.20;99.90;;;;;;5060691;28;20025;-70
2022/12/01 08:51:28;;;;;;;129.65;51.28;;;5.20;99.90;;;;;;5062956;28;20025;-72
2022/12/01 08:53:56;;;;;;;137.90;53.22;;;5.20;99.90;;;;;;5063378;28;20077;-71
2022/12/01 08:56:25;;;;;;;137.15;53.55;;;5.20;99.90;;;;;;5062141;28;20017;-70
2022/12/01 08:58:53;;;;;;;133.88;51.65;;;5.20;99.90;;;;;;5062483;28;20029;-73
2022/12/01 09:01:19;;;;;;;129.73;51.65;;;5.20;99.90;;;;;;5054951;28;20107;-72
2022/12/01 09:03:45;;;;;;;133.00;51.25;;;5.20;99.90;;;;;;5058767;28;20036;-72
2022/12/01 09:06:18;;;;;;;124.53;50.03;;;5.20;99.90;;;;;;5045834;28;20056;-72
2022/12/01 09:08:43;;;;;;;122.85;50.55;;;5.30;99.90;;;;;;5060704;28;20028;-72
2022/12/01 09:11:12;;;;;;;131.02;50.55;;;5.30;99.90;;;;;;5059417;28;20028;-71
2022/12/01 09:13:40;;;;;;;140.95;50.58;;;5.20;99.90;;;;;;5062525;28;20107;-74
2022/12/01 09:16:15;;;;;;;127.90;48.53;;;5.30;99.90;;;;;;5062720;28;20055;-72
2022/12/01 09:18:41;;;;;;;134.98;50.80;;;5.30;99.90;;;;;;5061361;28;20029;-72
2022/12/01 09:21:11;;;;;;;132.38;50.75;;;5.40;99.90;;;;;;5060713;28;20033;-73
2022/12/01 09:23:38;;;;;;;125.18;50.38;;;5.40;99.90;;;;;;5060935;28;20033;-72
2022/12/01 09:26:05;;;;;;;131.10;49.63;;;5.40;99.90;;;;;;5062791;28;20029;-73
2022/12/01 09:28:31;;;;;;;123.28;47.25;;;5.40;99.90;;;;;;5065831;28;20043;-71
2022/12/01 09:31:06;;;;;;;126.85;48.40;;;5.40;99.90;;;;;;5058353;28;20164;-72
2022/12/01 09:33:32;;;;;;;117.85;46.05;;;5.40;99.90;;;;;;5061323;28;20021;-73
2022/12/01 09:35:59;;;;;;;125.15;48.03;;;5.40;99.90;;;;;;5057414;28;20037;-71
2022/12/01 09:38:28;;;;;;;122.88;48.50;;;5.40;99.90;;;;;;5041065;28;20052;-71
2022/12/01 09:40:55;;;;;;;125.20;48.88;;;5.40;99.90;;;;;;5052990;28;20189;-71
2022/12/01 09:43:25;;;;;;;122.85;48.97;;;5.40;99.90;;;;;;5057922;28;20088;-71
2022/12/01 09:45:57;;;;;;;123.53;48.83;;;5.40;99.90;;;;;;5066508;28;20029;-71
2022/12/01 09:48:41;;;;;;;130.77;47.70;;;5.40;99.90;;;;;;5066603;28;20157;-71
2022/12/01 09:51:18;;;;;;;122.40;48.17;;;5.40;99.90;;;;;;5066353;28;20021;-73
2022/12/01 09:53:45;;;;;;;130.38;49.22;;;5.40;99.90;;;;;;5048515;28;20090;-71
2022/12/01 09:56:31;;;;;;;129.57;49.20;;;5.40;99.90;;;;;;5066853;28;20025;-72
2022/12/01 09:59:01;;;;;;;123.97;46.60;;;5.40;99.90;;;;;;5066469;28;20397;-72
2022/12/01 10:01:42;;;;;;;130.45;46.38;;;5.50;99.90;;;;;;5060337;28;20029;-71
2022/12/01 10:04:37;;;;;;;119.40;45.47;;;5.50;99.90;;;;;;5065513;28;20040;-73
2022/12/01 10:07:10;;;;;;;116.10;44.45;;;5.50;99.90;;;;;;5048918;28;20053;-73
2022/12/01 10:09:45;;;;;;;131.68;47.38;;;5.50;99.90;;;;;;5046010;28;20075;-72
2022/12/01 10:12:19;;;;;;;108.10;44.55;;;5.40;99.90;;;;;;5049002;28;20028;-70
2022/12/01 10:14:46;;;;;;;120.00;46.50;;;5.40;99.90;;;;;;5065778;28;20025;-70
2022/12/01 10:17:33;;;;;;;114.85;45.50;;;5.40;99.90;;;;;;5066029;28;20025;-70
2022/12/01 10:20:23;;;;;;;128.55;45.33;;;5.50;99.90;;;;;;5059653;28;20052;-71
2022/12/01 10:23:08;;;;;;;116.57;44.40;;;5.50;99.90;;;;;;5060760;28;20032;-72
2022/12/01 10:25:44;;;;;;;108.13;41.97;;;5.50;99.90;;;;;;5065376;28;20028;-73
2022/12/01 10:28:33;;;;;;;124.88;43.70;;;5.50;99.90;;;;;;5065746;28;20104;-72
2022/12/01 10:31:13;;;;;;;118.57;45.67;;;5.50;99.90;;;;;;5044472;28;20054;-73
2022/12/01 10:33:57;;;;;;;113.93;44.60;;;5.50;99.90;;;;;;5044418;28;20025;-72
2022/12/01 10:36:25;;;;;;;109.05;44.25;;;5.50;99.90;;;;;;5027748;28;20033;-71
2022/12/01 10:38:50;;;;;;;110.00;46.15;;;5.50;99.90;;;;;;5045796;28;20053;-72
2022/12/01 10:41:19;;;;;;;123.43;45.85;;;5.50;99.90;;;;;;5045290;28;20017;-71
2022/12/01 10:43:49;;;;;;;113.82;41.17;;;5.60;99.90;;;;;;5045446;28;20025;-70
2022/12/01 10:46:26;;;;;;;104.78;41.60;;;5.60;99.90;;;;;;5047760;28;20121;-72
2022/12/01 10:49:05;;;;;;;109.28;42.97;;;5.60;99.90;;;;;;5057373;28;20048;-72
2022/12/01 10:51:46;;;;;;;113.25;41.83;;;5.60;99.90;;;;;;5052849;28;20105;-72
2022/12/01 10:54:11;;;;;;;122.97;41.90;;;5.60;99.90;;;;;;5054163;28;20033;-71
2022/12/01 10:56:42;;;;;;;118.28;43.65;;;5.60;99.90;;;;;;5059240;28;20025;-71
2022/12/01 10:59:30;;;;;;;114.75;42.53;;;5.50;99.90;;;;;;5060598;28;20029;-70
2022/12/01 11:01:57;;;;;;;111.15;42.47;;;5.50;99.90;;;;;;5055624;28;20041;-70
2022/12/01 11:04:33;;;;;;;117.03;44.70;;;5.50;99.90;;;;;;5065524;28;20035;-71
2022/12/01 11:06:59;;;;;;;115.45;42.30;;;5.50;99.90;;;;;;5065726;28;20105;-71
2022/12/01 11:09:28;;;;;;;116.72;42.63;;;5.50;99.90;;;;;;5058589;28;20063;-70
2022/12/01 11:12:00;;;;;;;117.90;43.10;;;5.60;99.90;;;;;;5052933;28;20108;-71
2022/12/01 11:14:39;;;;;;;109.50;42.08;;;5.60;99.90;;;;;;5045302;28;20105;-71
2022/12/01 11:17:26;;;;;;;126.90;48.72;;;5.60;99.90;;;;;;5046155;28;20362;-70
2022/12/01 11:19:52;;;;;;;141.73;49.30;;;5.60;99.90;;;;;;5061182;28;20052;-70
2022/12/01 11:22:30;;;;;;;123.78;44.78;;;5.60;99.90;;;;;;5065648;28;20052;-71
2022/12/01 11:24:59;;;;;;;125.15;45.92;;;5.60;99.90;;;;;;5067838;28;20033;-69
2022/12/01 11:27:29;;;;;;;117.85;43.13;;;5.60;99.90;;;;;;5070983;28;20783;-70
2022/12/01 11:29:59;;;;;;;122.45;46.15;;;5.60;99.90;;;;;;5062222;28;20100;-70
2022/12/01 11:32:34;;;;;;;123.18;45.83;;;5.70;99.90;;;;;;5052367;28;20025;-71
2022/12/01 11:35:04;;;;;;;123.13;44.63;;;5.70;99.90;;;;;;5063534;28;20024;-71
2022/12/01 11:37:41;;;;;;;111.68;42.95;;;5.70;99.90;;;;;;5062073;28;20044;-71
2022/12/01 11:40:23;;;;;;;122.00;46.28;;;5.80;99.90;;;;;;5064549;28;20349;-71
2022/12/01 11:43:01;;;;;;;122.53;47.38;;;5.80;99.90;;;;;;5064210;28;20413;-70
2022/12/01 11:45:31;;;;;;;135.50;47.17;;;5.80;99.90;;;;;;5064360;28;20043;-70
2022/12/01 11:48:11;;;;;;;140.85;48.85;;;5.90;99.90;;;;;;5063619;28;20090;-70
2022/12/01 11:50:41;;;;;;;119.45;44.50;;;5.90;99.90;;;;;;5055506;28;20037;-72
2022/12/01 11:53:42;;;;;;;124.45;45.53;;;5.90;99.90;;;;;;5054501;28;20559;-72
2022/12/01 11:56:24;;;;;;;120.45;44.97;;;5.90;99.90;;;;;;5017586;28;20060;-72
2022/12/01 11:58:57;;;;;;;114.10;43.35;;;5.90;99.90;;;;;;5058827;28;20021;-71
2022/12/01 12:01:35;;;;;;;112.03;42.92;;;5.90;99.90;;;;;;5058728;28;20035;-71
2022/12/01 12:04:07;;;;;;;126.00;43.67;;;5.90;99.90;;;;;;5059763;28;20041;-72
2022/12/01 12:06:54;;;;;;;111.13;42.85;;;5.90;99.90;;;;;;5059887;28;20045;-72
2022/12/01 12:09:26;;;;;;;125.40;45.90;;;6.00;99.90;;;;;;5059718;28;20090;-73
2022/12/01 12:12:13;;;;;;;123.05;44.97;;;6.00;99.90;;;;;;5059342;28;20060;-71
2022/12/01 12:14:38;;;;;;;111.78;42.03;;;6.00;99.90;;;;;;5059738;28;20055;-71
2022/12/01 12:17:16;;;;;;;111.28;42.08;;;6.00;99.90;;;;;;5059832;28;20033;-71
2022/12/01 12:20:06;;;;;;;115.57;41.10;;;5.90;99.90;;;;;;5059752;28;20512;-72
2022/12/01 12:22:40;;;;;;;106.45;39.97;;;5.90;99.90;;;;;;5060164;28;20046;-71
2022/12/01 12:25:17;;;;;;;110.07;42.05;;;5.90;99.90;;;;;;5059693;28;20028;-72
2022/12/01 12:28:03;;;;;;;116.18;40.92;;;5.90;99.90;;;;;;5059737;28;20521;-73
2022/12/01 12:30:33;;;;;;;122.13;40.80;;;5.90;99.90;;;;;;5057689;28;20040;-71
2022/12/01 12:33:38;;;;;;;101.93;38.63;;;5.90;99.90;;;;;;5055494;28;20020;-72
2022/12/01 12:36:20;;;;;;;119.32;40.55;;;5.90;99.90;;;;;;5058425;28;20032;-72
2022/12/01 12:38:46;;;;;;;112.80;42.92;;;5.90;99.90;;;;;;5058537;28;20029;-70
2022/12/01 12:41:14;;;;;;;114.00;41.08;;;5.90;99.90;;;;;;5057754;28;20048;-71
2022/12/01 12:44:09;;;;;;;106.75;40.00;;;5.90;99.90;;;;;;5057396;28;20029;-71
2022/12/01 12:46:40;;;;;;;;;;;5.90;99.90;;;;;;5041573;28;20143;-71
2022/12/01 12:49:43;;;;;;;106.50;39.83;;;6.00;99.90;;;;;;5059707;28;19904;-72